Time;durP1;ratioP1;P1;durP2;ratioP2;P2;SDS_P1;SDS_P2;PMS_P1;PMS_P2;Temp;Humidity;BMP_temperature;BMP_pressure;BME280_temperature;BME280_humidity;BME280_pressure;Samples;Min_cycle;Max_cycle;Signal;HPM_P1;HPM_P2
2023/08/28 00:02:19;;;;;;;;;;;16.20;99.90;;;;;;5073632;28;19940;-66
2023/08/28 00:04:44;;;;;;;;;;;16.20;99.90;;;;;;5073407;28;19920;-67
2023/08/28 00:07:10;;;;;;;;;;;16.20;99.90;;;;;;5073630;28;19912;-67
2023/08/28 00:09:36;;;;;;;;;;;16.30;99.90;;;;;;5073494;28;19948;-67
2023/08/28 00:12:02;;;;;;;;;;;16.30;99.90;;;;;;5074024;28;19909;-67
2023/08/28 00:14:28;;;;;;;;;;;16.30;99.90;;;;;;5073515;28;19944;-66
2023/08/28 00:16:53;;;;;;;;;;;16.30;99.90;;;;;;5073444;28;20343;-67
2023/08/28 00:19:19;;;;;;;;;;;16.30;99.90;;;;;;5073741;28;20347;-67
2023/08/28 00:21:45;;;;;;;;;;;16.30;99.90;;;;;;5073624;28;20044;-67
2023/08/28 00:24:11;;;;;;;;;;;16.30;99.90;;;;;;5073656;28;19970;-67
2023/08/28 00:26:37;;;;;;;;;;;16.20;99.90;;;;;;5073345;28;20382;-68
2023/08/28 00:29:02;;;;;;;;;;;16.20;99.90;;;;;;5089113;28;19923;-67
2023/08/28 00:31:28;;;;;;;;;;;16.20;99.90;;;;;;5071991;28;20339;-67
2023/08/28 00:33:53;;;;;;;;;;;16.20;99.90;;;;;;5067165;28;20046;-67
2023/08/28 00:36:19;;;;;;;;;;;16.10;99.90;;;;;;5053574;28;19920;-67
2023/08/28 00:38:45;;;;;;;;;;;16.10;99.90;;;;;;5053270;28;19920;-67
2023/08/28 00:41:11;;;;;;;;;;;16.10;99.90;;;;;;5052818;28;19920;-66
2023/08/28 00:43:37;;;;;;;;;;;16.00;99.90;;;;;;5052818;28;20008;-66
2023/08/28 00:46:03;;;;;;;;;;;16.00;99.90;;;;;;5052893;28;20008;-66
2023/08/28 00:48:29;;;;;;;;;;;16.00;99.90;;;;;;5052853;28;20366;-66
2023/08/28 00:50:54;;;;;;;;;;;16.00;99.90;;;;;;5053175;28;19923;-67
2023/08/28 00:53:21;;;;;;;;;;;16.10;99.90;;;;;;5052908;28;19913;-66
2023/08/28 00:55:46;;;;;;;;;;;16.00;99.90;;;;;;5052920;28;19940;-66
2023/08/28 00:58:12;;;;;;;;;;;16.00;99.90;;;;;;5052523;28;20342;-66
2023/08/28 01:00:38;;;;;;;;;;;16.00;99.90;;;;;;5052601;28;19925;-67
2023/08/28 01:03:03;;;;;;;;;;;16.00;99.90;;;;;;5052830;28;19908;-67
2023/08/28 01:05:34;;;;;;;;;;;15.90;99.90;;;;;;5052197;28;19917;-66
2023/08/28 01:08:07;;;;;;;;;;;16.00;99.90;;;;;;5052478;28;19921;-67
2023/08/28 01:10:38;;;;;;;;;;;15.90;99.90;;;;;;5052413;28;20413;-66
2023/08/28 01:13:16;;;;;;;;;;;15.90;99.90;;;;;;5052249;28;19983;-66
2023/08/28 01:15:41;;;;;;;;;;;16.00;99.90;;;;;;5052529;28;19912;-66
2023/08/28 01:18:08;;;;;;;;;;;16.00;99.90;;;;;;5052622;28;19920;-66
2023/08/28 01:20:35;;;;;;;;;;;16.00;99.90;;;;;;5052164;28;19913;-67
2023/08/28 01:23:04;;;;;;;;;;;16.00;99.90;;;;;;5052069;28;19924;-66
2023/08/28 01:25:31;;;;;;;;;;;16.00;99.90;;;;;;5052095;28;19952;-67
2023/08/28 01:27:57;;;;;;;;;;;16.00;99.90;;;;;;5052175;28;19928;-66
2023/08/28 01:30:23;;;;;;;;;;;16.00;99.90;;;;;;5051914;28;19908;-67
2023/08/28 01:32:48;;;;;;;;;;;15.90;99.90;;;;;;5052575;28;19975;-66
2023/08/28 01:35:15;;;;;;;;;;;15.80;99.90;;;;;;5071795;28;20335;-67
2023/08/28 01:37:41;;;;;;;;;;;15.80;99.90;;;;;;5091967;28;19916;-67
2023/08/28 01:40:09;;;;;;;;;;;15.80;99.90;;;;;;5090945;28;20014;-65
2023/08/28 01:42:35;;;;;;;;;;;15.70;99.90;;;;;;5091958;28;20459;-66
2023/08/28 01:45:01;;;;;;;;;;;15.70;99.90;;;;;;5092477;28;20062;-66
2023/08/28 01:47:27;;;;;;;;;;;15.70;99.90;;;;;;5091429;28;20113;-67
2023/08/28 01:49:55;;;;;;;;;;;15.70;99.90;;;;;;5091798;28;19913;-67
2023/08/28 01:52:20;;;;;;;;;;;15.70;99.90;;;;;;5091830;28;19924;-67
2023/08/28 01:54:46;;;;;;;;;;;15.70;99.90;;;;;;5091827;28;20254;-67
2023/08/28 01:57:12;;;;;;;;;;;15.70;99.90;;;;;;5092044;28;19958;-67
2023/08/28 01:59:37;;;;;;;;;;;15.70;99.90;;;;;;5092065;28;19919;-66
2023/08/28 02:02:03;;;;;;;;;;;15.60;99.90;;;;;;5091967;28;20389;-68
2023/08/28 02:04:28;;;;;;;;;;;15.60;99.90;;;;;;5090427;28;19963;-68
2023/08/28 02:06:54;;;;;;;;;;;15.60;99.90;;;;;;5091679;28;19969;-66
2023/08/28 02:09:19;;;;;;;;;;;15.60;99.90;;;;;;5090490;28;19908;-66
2023/08/28 02:11:45;;;;;;;;;;;15.60;99.90;;;;;;5092275;28;19947;-67
2023/08/28 02:14:11;;;;;;;;;;;15.60;99.90;;;;;;5091612;28;19947;-67
2023/08/28 02:16:38;;;;;;;;;;;15.60;99.90;;;;;;5091738;28;19969;-66
2023/08/28 02:19:04;;;;;;;;;;;15.70;99.90;;;;;;5091525;28;19943;-66
2023/08/28 02:21:29;;;;;;;;;;;15.60;99.90;;;;;;5090287;28;19919;-68
2023/08/28 02:23:55;;;;;;;;;;;15.60;99.90;;;;;;5091790;28;19916;-67
2023/08/28 02:26:21;;;;;;;;;;;15.50;99.90;;;;;;5091727;28;20398;-68
2023/08/28 02:28:46;;;;;;;;;;;15.60;99.90;;;;;;5091372;28;20254;-67
2023/08/28 02:31:12;;;;;;;;;;;15.50;99.90;;;;;;5091331;28;20377;-67
2023/08/28 02:33:37;;;;;;;;;;;15.60;99.90;;;;;;5091086;28;20362;-67
2023/08/28 02:36:03;;;;;;;;;;;15.50;99.90;;;;;;5090587;28;19908;-67
2023/08/28 02:38:28;;;;;;;;;;;15.60;99.90;;;;;;5091382;28;20346;-66
2023/08/28 02:41:01;;;;;;;;;;;15.60;99.90;;;;;;5091376;28;20422;-67
2023/08/28 02:43:26;;;;;;;;;;;15.60;99.90;;;;;;5091501;28;19939;-67
2023/08/28 02:45:52;;;;;;;;;;;15.60;99.90;;;;;;5091353;28;20287;-67
2023/08/28 02:48:17;;;;;;;;;;;15.60;99.90;;;;;;5091496;28;20444;-67
2023/08/28 02:50:43;;;;;;;;;;;15.50;99.90;;;;;;5090283;28;19904;-67
2023/08/28 02:53:08;;;;;;;;;;;15.50;99.90;;;;;;5091111;28;20335;-67
2023/08/28 02:55:38;;;;;;;;;;;15.50;99.90;;;;;;5091279;28;19944;-67
2023/08/28 02:58:03;;;;;;;;;;;15.60;99.90;;;;;;5092152;28;19912;-67
2023/08/28 03:00:29;;;;;;;;;;;15.60;99.90;;;;;;5095012;28;19919;-66
2023/08/28 03:02:54;;;;;;;;;;;15.60;99.90;;;;;;5095772;28;19969;-67
2023/08/28 03:05:20;;;;;;;;;;;15.60;99.90;;;;;;5095170;28;20261;-67
2023/08/28 03:07:46;;;;;;;;;;;15.70;99.90;;;;;;5095196;28;19927;-66
2023/08/28 03:10:11;;;;;;;;;;;15.60;99.90;;;;;;5094889;28;20337;-67
2023/08/28 03:12:37;;;;;;;;;;;15.70;99.90;;;;;;5095084;28;19948;-68
2023/08/28 03:15:03;;;;;;;;;;;15.70;99.90;;;;;;5094250;28;19908;-66
2023/08/28 03:17:28;;;;;;;;;;;15.60;99.90;;;;;;5094907;28;19913;-68
2023/08/28 03:19:54;;;;;;;;;;;15.70;99.90;;;;;;5094678;28;20360;-67
2023/08/28 03:22:19;;;;;;;;;;;15.70;99.90;;;;;;5093671;28;19973;-66
2023/08/28 03:24:45;;;;;;;;;;;15.70;99.90;;;;;;5094595;28;20334;-66
2023/08/28 03:27:10;;;;;;;;;;;15.70;99.90;;;;;;5095035;28;19916;-66
2023/08/28 03:29:36;;;;;;;;;;;15.70;99.90;;;;;;5094384;28;20085;-65
2023/08/28 03:32:02;;;;;;;;;;;15.70;99.90;;;;;;5094427;28;19912;-66
2023/08/28 03:34:27;;;;;;;;;;;15.70;99.90;;;;;;5094355;28;19935;-67
2023/08/28 03:36:53;;;;;;;;;;;15.60;99.90;;;;;;5094483;28;19951;-67
2023/08/28 03:39:18;;;;;;;;;;;15.60;99.90;;;;;;5094487;28;19919;-67
2023/08/28 03:41:44;;;;;;;;;;;15.70;99.90;;;;;;5094704;28;20361;-67
2023/08/28 03:44:09;;;;;;;;;;;15.60;99.90;;;;;;5094076;28;19917;-67
2023/08/28 03:46:35;;;;;;;;;;;15.70;99.90;;;;;;5094296;28;20005;-67
2023/08/28 03:49:00;;;;;;;;;;;15.70;99.90;;;;;;5094103;28;19916;-66
2023/08/28 03:51:26;;;;;;;;;;;15.70;99.90;;;;;;5094412;28;19919;-66
2023/08/28 03:53:51;;;;;;;;;;;15.70;99.90;;;;;;5094440;28;19943;-66
2023/08/28 03:56:17;;;;;;;;;;;15.70;99.90;;;;;;5094036;28;19952;-66
2023/08/28 03:58:43;;;;;;;;;;;15.70;99.90;;;;;;5094130;28;20384;-67
2023/08/28 04:01:08;;;;;;;;;;;15.70;99.90;;;;;;5093866;28;20464;-67
2023/08/28 04:03:34;;;;;;;;;;;15.70;99.90;;;;;;5093898;28;20003;-67
2023/08/28 04:05:59;;;;;;;;;;;15.60;99.90;;;;;;5094062;28;19912;-68
2023/08/28 04:08:25;;;;;;;;;;;15.70;99.90;;;;;;5093463;28;19955;-67
2023/08/28 04:10:52;;;;;;;;;;;15.70;99.90;;;;;;5093555;28;19916;-67
2023/08/28 04:13:17;;;;;;;;;;;15.70;99.90;;;;;;5093731;28;20370;-67
2023/08/28 04:15:43;;;;;;;;;;;15.70;99.90;;;;;;5093846;28;19916;-66
2023/08/28 04:18:09;;;;;;;;;;;15.70;99.90;;;;;;5093947;28;19908;-67
2023/08/28 04:20:34;;;;;;;;;;;15.70;99.90;;;;;;5093735;28;19991;-67
2023/08/28 04:23:00;;;;;;;;;;;15.60;99.90;;;;;;5093432;28;20008;-67
2023/08/28 04:25:27;;;;;;;;;;;15.70;99.90;;;;;;5093628;28;19920;-67
2023/08/28 04:27:53;;;;;;;;;;;15.60;99.90;;;;;;5093517;28;19916;-66
2023/08/28 04:30:18;;;;;;;;;;;15.60;99.90;;;;;;5093326;28;19924;-66
2023/08/28 04:32:44;;;;;;;;;;;15.50;99.90;;;;;;5093907;28;20304;-66
2023/08/28 04:35:10;;;;;;;;;;;15.50;99.90;;;;;;5093277;28;19935;-67
2023/08/28 04:37:35;;;;;;;;;;;15.60;99.90;;;;;;5093251;28;19920;-66
2023/08/28 04:40:01;;;;;;;;;;;15.50;99.90;;;;;;5093222;28;19916;-65
2023/08/28 04:42:26;;;;;;;;;;;15.60;99.90;;;;;;5093118;28;19948;-66
2023/08/28 04:44:52;;;;;;;;;;;15.60;99.90;;;;;;5093450;28;19999;-67
2023/08/28 04:47:17;;;;;;;;;;;15.60;99.90;;;;;;5093403;28;19912;-66
2023/08/28 04:49:43;;;;;;;;;;;15.60;99.90;;;;;;5092989;28;19927;-67
2023/08/28 04:52:08;;;;;;;;;;;15.60;99.90;;;;;;5093392;28;19912;-66
2023/08/28 04:54:34;;;;;;;;;;;15.60;99.90;;;;;;5093097;28;19969;-67
2023/08/28 04:56:59;;;;;;;;;;;15.60;99.90;;;;;;5093355;28;19909;-66
2023/08/28 04:59:25;;;;;;;;;;;15.60;99.90;;;;;;5092851;28;19916;-66
2023/08/28 05:01:51;;;;;;;;;;;15.60;99.90;;;;;;5092956;28;19920;-66
2023/08/28 05:04:16;;;;;;;;;;;15.60;99.90;;;;;;5093076;28;19916;-66
2023/08/28 05:06:42;;;;;;;;;;;15.60;99.90;;;;;;5092702;28;20311;-66
2023/08/28 05:09:07;;;;;;;;;;;15.70;99.90;;;;;;5093219;28;20004;-67
2023/08/28 05:11:33;;;;;;;;;;;15.60;99.90;;;;;;5092701;28;19995;-67
2023/08/28 05:13:58;;;;;;;;;;;15.60;99.90;;;;;;5092587;28;20318;-65
2023/08/28 05:16:24;;;;;;;;;;;15.60;99.90;;;;;;5091323;28;20354;-67
2023/08/28 05:18:49;;;;;;;;;;;15.70;99.90;;;;;;5092710;28;20300;-66
2023/08/28 05:21:15;;;;;;;;;;;15.70;99.90;;;;;;5091641;28;20007;-67
2023/08/28 05:23:41;;;;;;;;;;;15.70;99.90;;;;;;5092876;28;20356;-66
2023/08/28 05:26:06;;;;;;;;;;;15.70;99.90;;;;;;5091223;28;19920;-66
2023/08/28 05:28:35;;;;;;;;;;;15.70;99.90;;;;;;5092356;28;19958;-67
2023/08/28 05:31:01;;;;;;;;;;;15.80;99.90;;;;;;5091111;28;20035;-66
2023/08/28 05:33:26;;;;;;;;;;;15.70;99.90;;;;;;5091965;28;19919;-68
2023/08/28 05:35:52;;;;;;;;;;;15.70;99.90;;;;;;5092574;28;19908;-67
2023/08/28 05:38:19;;;;;;;;;;;15.70;99.90;;;;;;5092039;28;19920;-68
2023/08/28 05:40:45;;;;;;;;;;;15.70;99.90;;;;;;5092194;28;19916;-68
2023/08/28 05:43:11;;;;;;;;;;;15.70;99.90;;;;;;5090772;28;19977;-67
2023/08/28 05:45:37;;;;;;;;;;;15.80;99.90;;;;;;5091691;28;20267;-69
2023/08/28 05:48:02;;;;;;;;;;;15.80;99.90;;;;;;5092308;28;19908;-69
2023/08/28 05:50:28;;;;;;;;;;;15.80;99.90;;;;;;5091708;28;19976;-69
2023/08/28 05:52:54;;;;;;;;;;;15.80;99.90;;;;;;5091700;28;20142;-69
2023/08/28 05:55:19;;;;;;;;;;;15.90;99.90;;;;;;5091971;28;19944;-69
2023/08/28 05:57:45;;;;;;;;;;;15.90;99.90;;;;;;5091884;28;19931;-69
2023/08/28 06:00:13;;;;;;;;;;;15.90;99.90;;;;;;5092077;28;19927;-69
2023/08/28 06:02:40;;;;;;;;;;;16.00;99.90;;;;;;5091611;28;19940;-72
2023/08/28 06:05:06;;;;;;;;;;;16.00;99.90;;;;;;5091567;28;19920;-70
2023/08/28 06:07:31;;;;;;;;;;;16.00;99.90;;;;;;5091648;28;19922;-71
2023/08/28 06:09:57;;;;;;;;;;;16.00;99.90;;;;;;5091567;28;20297;-71
2023/08/28 06:12:22;;;;;;;;;;;16.10;99.90;;;;;;5091735;28;19984;-69
2023/08/28 06:14:48;;;;;;;;;;;16.20;99.90;;;;;;5092461;28;20318;-69
2023/08/28 06:17:13;;;;;;;;;;;16.30;99.90;;;;;;5091680;28;19924;-68
2023/08/28 06:19:39;;;;;;;;;;;16.30;99.90;;;;;;5091553;28;20342;-69
2023/08/28 06:22:05;;;;;;;;;;;16.30;99.90;;;;;;5091440;28;19916;-71
2023/08/28 06:24:31;;;;;;;;;;;16.40;99.90;;;;;;5091131;28;20369;-72
2023/08/28 06:26:57;;;;;;;;;;;16.50;99.90;;;;;;5091723;28;20353;-73
2023/08/28 06:29:23;;;;;;;;;;;16.50;99.90;;;;;;5091537;28;19913;-71
2023/08/28 06:31:49;;;;;;;;;;;16.50;99.90;;;;;;5091337;28;19927;-74
2023/08/28 06:34:15;;;;;;;;;;;16.50;99.90;;;;;;5082649;28;19928;-74
2023/08/28 06:36:41;;;;;;;;;;;16.50;99.90;;;;;;5071094;28;19917;-74
2023/08/28 06:39:07;;;;;;;;;;;16.60;99.90;;;;;;5070346;28;19912;-73
2023/08/28 06:41:32;;;;;;;;;;;16.60;99.90;;;;;;5070886;28;19920;-72
2023/08/28 06:43:58;;;;;;;;;;;16.70;99.90;;;;;;5069635;28;19920;-71
2023/08/28 06:46:23;;;;;;;;;;;16.80;99.90;;;;;;5070833;28;19913;-72
2023/08/28 06:48:51;;;;;;;;;;;16.70;99.90;;;;;;5071053;28;19926;-71
2023/08/28 06:51:17;;;;;;;;;;;16.80;99.90;;;;;;5070827;28;19908;-70
2023/08/28 06:53:43;;;;;;;;;;;16.80;99.90;;;;;;5071227;28;19923;-69
2023/08/28 06:56:09;;;;;;;;;;;16.80;99.90;;;;;;5070897;28;19924;-72
2023/08/28 06:58:34;;;;;;;;;;;16.90;99.90;;;;;;5070870;28;19928;-70
2023/08/28 07:01:00;;;;;;;;;;;16.90;99.90;;;;;;5070754;28;19966;-72
2023/08/28 07:03:25;;;;;;;;;;;16.90;99.90;;;;;;5070813;28;19916;-71
2023/08/28 07:05:51;;;;;;;;;;;16.90;99.90;;;;;;5071390;28;20335;-72
2023/08/28 07:08:16;;;;;;;;;;;16.90;99.90;;;;;;5070870;28;20007;-73
2023/08/28 07:10:42;;;;;;;;;;;17.00;99.90;;;;;;5070728;28;19912;-73
2023/08/28 07:13:08;;;;;;;;;;;17.00;99.90;;;;;;5070620;28;20358;-71
2023/08/28 07:15:33;;;;;;;;;;;17.10;99.90;;;;;;5070959;28;19909;-72
2023/08/28 07:17:59;;;;;;;;;;;17.00;99.90;;;;;;5070047;28;19908;-70
2023/08/28 07:20:24;;;;;;;;;;;17.10;99.90;;;;;;5070816;28;19988;-72
2023/08/28 07:22:53;;;;;;;;;;;17.10;99.90;;;;;;5070816;28;19913;-71
2023/08/28 07:25:21;;;;;;;;;;;17.20;99.90;;;;;;5070682;28;19917;-72
2023/08/28 07:27:47;;;;;;;;;;;17.30;99.90;;;;;;5070850;28;19913;-71
2023/08/28 07:30:12;;;;;;;;;;;17.40;99.90;;;;;;5070938;28;19909;-72
2023/08/28 07:32:39;;;;;;;;;;;17.40;99.90;;;;;;5070670;28;19924;-71
2023/08/28 07:35:05;;;;;;;;;;;17.40;99.90;;;;;;5085710;28;19925;-72
2023/08/28 07:37:33;;;;;;;;;;;17.50;99.90;;;;;;5090950;28;20003;-73
2023/08/28 07:39:58;;;;;;;;;;;17.60;99.90;;;;;;5091048;28;19912;-70
2023/08/28 07:42:24;;;;;;;;;;;17.70;99.90;;;;;;5090549;28;19908;-68
2023/08/28 07:44:50;;;;;;;;;;;17.70;99.90;;;;;;5092951;28;19924;-70
2023/08/28 07:47:15;;;;;;;;;;;17.70;99.90;;;;;;5093048;28;19916;-70
2023/08/28 07:49:41;;;;;;;;;;;17.70;99.90;;;;;;5094331;28;19924;-70
2023/08/28 07:52:07;;;;;;;;;;;17.70;99.90;;;;;;5094292;28;19919;-71
2023/08/28 07:54:32;;;;;;;;;;;17.80;99.90;;;;;;5094351;28;20235;-71
2023/08/28 07:56:58;;;;;;;;;;;18.10;99.90;;;;;;5094705;28;20366;-72
2023/08/28 07:59:23;;;;;;;;;;;18.10;99.90;;;;;;5094162;28;19920;-73
2023/08/28 08:01:49;;;;;;;;;;;18.20;99.90;;;;;;5094018;28;19916;-72
2023/08/28 08:04:14;;;;;;;;;;;18.20;99.90;;;;;;5093968;28;20580;-70
2023/08/28 08:06:40;;;;;;;;;;;18.30;99.90;;;;;;5093812;28;19968;-72
2023/08/28 08:09:06;;;;;;;;;;;18.30;99.90;;;;;;5094271;28;19923;-71
2023/08/28 08:11:32;;;;;;;;;;;18.40;99.90;;;;;;5093834;28;19948;-71
2023/08/28 08:13:57;;;;;;;;;;;18.60;99.90;;;;;;5093666;28;19973;-71
2023/08/28 08:16:23;;;;;;;;;;;18.60;99.90;;;;;;5093812;28;19947;-74
2023/08/28 08:18:48;;;;;;;;;;;18.80;99.90;;;;;;5093688;28;19923;-74
2023/08/28 08:21:15;;;;;;;;;;;19.00;99.90;;;;;;5094171;28;19908;-72
2023/08/28 08:23:41;;;;;;;;;;;19.40;99.90;;;;;;5093889;28;20307;-72
2023/08/28 08:26:07;;;;;;;;;;;19.60;99.20;;;;;;5093387;28;20286;-72
2023/08/28 08:28:32;;;;;;;;;;;20.40;98.90;;;;;;5092478;28;20249;-72
2023/08/28 08:30:58;;;;;;;;;;;21.30;97.70;;;;;;5093357;28;20449;-72
2023/08/28 08:33:23;;;;;;;;;;;22.40;95.80;;;;;;5093200;28;19916;-71
2023/08/28 08:35:51;;;;;;;;;;;22.90;95.60;;;;;;5093192;28;20974;-71
2023/08/28 08:38:17;;;;;;;;;;;23.90;95.10;;;;;;5093121;28;19916;-72
2023/08/28 08:40:43;;;;;;;;;;;25.40;92.90;;;;;;5093305;28;20329;-72
2023/08/28 08:43:08;;;;;;;;;;;26.20;90.90;;;;;;5092956;28;19916;-72
2023/08/28 08:45:36;;;;;;;;;;;25.80;90.10;;;;;;5092992;28;20013;-72
2023/08/28 08:48:02;;;;;;;;;;;26.70;88.30;;;;;;5093680;28;19912;-71
2023/08/28 08:50:28;;;;;;;;;;;27.10;87.20;;;;;;5092926;28;19912;-71
2023/08/28 08:53:01;;;;;;;;;;;27.40;86.40;;;;;;5093017;28;19948;-71
2023/08/28 08:55:43;;;;;;;;;;;28.40;83.70;;;;;;5092707;28;19912;-70
2023/08/28 08:58:13;;;;;;;;;;;28.60;81.70;;;;;;5092756;28;19961;-70
2023/08/28 09:00:39;;;;;;;;;;;27.50;81.40;;;;;;5092632;28;19973;-72
2023/08/28 09:03:05;;;;;;;;;;;26.30;82.50;;;;;;5093213;28;19919;-70
2023/08/28 09:05:31;;;;;;;;;;;26.40;84.70;;;;;;5092790;28;19920;-70
2023/08/28 09:07:59;;;;;;;;;;;26.70;85.00;;;;;;5091588;28;19962;-72
2023/08/28 09:10:24;;;;;;;;;;;27.10;84.00;;;;;;5092497;28;20342;-71
2023/08/28 09:12:51;;;;;;;;;;;27.10;82.60;;;;;;5091525;28;20145;-71
2023/08/28 09:15:17;;;;;;;;;;;27.10;82.70;;;;;;5092416;28;20003;-71
2023/08/28 09:17:43;;;;;;;;;;;26.90;83.90;;;;;;5093219;28;20009;-71
2023/08/28 09:20:18;;;;;;;;;;;26.70;82.70;;;;;;5092586;28;19966;-71
2023/08/28 09:22:45;;;;;;;;;;;26.20;83.50;;;;;;5092497;28;19923;-71
2023/08/28 09:25:10;;;;;;;;;;;25.80;84.10;;;;;;5092202;28;20008;-70
2023/08/28 09:27:41;;;;;;;;;;;25.30;86.10;;;;;;5092305;28;19973;-70
2023/08/28 09:30:07;;;;;;;;;;;25.00;86.40;;;;;;5091497;28;20016;-70
2023/08/28 09:32:32;;;;;;;;;;;24.70;87.00;;;;;;5092464;28;19931;-69
2023/08/28 09:34:58;;;;;;;;;;;24.10;87.00;;;;;;5091048;28;20346;-70
2023/08/28 09:37:25;;;;;;;;;;;24.40;88.30;;;;;;5092188;28;19916;-69
2023/08/28 09:39:55;;;;;;;;;;;24.20;88.00;;;;;;5092192;28;19996;-69
2023/08/28 09:42:24;;;;;;;;;;;24.00;87.30;;;;;;5092411;28;20028;-69
2023/08/28 09:44:50;;;;;;;;;;;23.70;87.30;;;;;;5092470;28;20310;-68
2023/08/28 09:47:22;;;;;;;;;;;24.00;87.60;;;;;;5091939;28;19922;-69
2023/08/28 09:49:51;;;;;;;;;;;24.20;88.00;;;;;;5091880;28;19970;-69
2023/08/28 09:52:24;;;;;;;;;;;23.90;87.60;;;;;;5090882;28;19928;-68
2023/08/28 09:55:08;;;;;;;;;;;24.00;87.50;;;;;;5092021;28;19923;-68
2023/08/28 09:57:33;;;;;;;;;;;24.20;87.60;;;;;;5091869;28;20148;-67
2023/08/28 09:59:59;;;;;;;;;;;24.10;86.10;;;;;;5092137;28;19908;-67
2023/08/28 10:02:25;;;;;;;;;;;23.90;86.70;;;;;;5091320;28;19996;-67
2023/08/28 10:04:52;;;;;;;;;;;23.70;87.20;;;;;;5091708;28;19965;-68
2023/08/28 10:07:21;;;;;;;;;;;23.30;88.40;;;;;;5091404;28;19977;-67
2023/08/28 10:09:47;;;;;;;;;;;23.00;88.50;;;;;;5091552;28;19973;-67
2023/08/28 10:12:13;;;;;;;;;;;22.90;89.00;;;;;;5092230;28;19995;-67
2023/08/28 10:14:39;;;;;;;;;;;22.90;88.40;;;;;;5091475;28;20003;-68
2023/08/28 10:17:06;;;;;;;;;;;23.20;88.40;;;;;;5091498;28;19913;-67
2023/08/28 10:19:37;;;;;;;;;;;23.50;88.40;;;;;;5091566;28;19912;-69
2023/08/28 10:22:06;;;;;;;;;;;23.50;88.20;;;;;;5090429;28;19924;-69
2023/08/28 10:24:32;;;;;;;;;;;23.60;87.60;;;;;;5091653;28;20215;-69
2023/08/28 10:26:58;;;;;;;;;;;23.50;87.90;;;;;;5091998;28;20222;-69
2023/08/28 10:29:24;;;;;;;;;;;23.10;88.60;;;;;;5091223;28;19912;-70
2023/08/28 10:31:50;;;;;;;;;;;23.20;88.60;;;;;;5091343;28;19998;-69
2023/08/28 10:34:16;;;;;;;;;;;23.40;88.10;;;;;;5091318;28;19932;-69
2023/08/28 10:36:43;;;;;;;;;;;23.10;88.30;;;;;;5089994;28;19931;-69
2023/08/28 10:39:11;;;;;;;;;;;23.40;88.80;;;;;;5091694;28;19994;-69
2023/08/28 10:41:37;;;;;;;;;;;23.40;88.30;;;;;;5091202;28;19920;-69
2023/08/28 10:44:03;;;;;;;;;;;23.00;89.00;;;;;;5091342;28;19913;-69
2023/08/28 10:46:29;;;;;;;;;;;22.50;89.30;;;;;;5091234;28;19938;-68
2023/08/28 10:48:57;;;;;;;;;;;22.80;89.80;;;;;;5090128;28;19912;-69
2023/08/28 10:51:28;;;;;;;;;;;22.80;89.00;;;;;;5091229;28;20215;-69
2023/08/28 10:53:53;;;;;;;;;;;22.70;89.80;;;;;;5091597;28;19962;-69
2023/08/28 10:56:19;;;;;;;;;;;22.90;89.50;;;;;;5091001;28;19920;-69
2023/08/28 10:58:45;;;;;;;;;;;22.90;89.20;;;;;;5091179;28;19920;-69
2023/08/28 11:01:13;;;;;;;;;;;22.90;89.10;;;;;;5091132;28;19916;-69
2023/08/28 11:04:04;;;;;;;;;;;22.90;89.30;;;;;;5091134;28;20335;-70
2023/08/28 11:06:34;;;;;;;;;;;23.00;89.10;;;;;;5088737;28;19916;-68
2023/08/28 11:09:19;;;;;;;;;;;23.40;88.20;;;;;;5091911;28;20417;-68
2023/08/28 11:11:45;;;;;;;;;;;23.60;87.50;;;;;;5091160;28;20330;-69
2023/08/28 11:14:13;;;;;;;;;;;23.60;88.00;;;;;;5092099;28;20328;-69
2023/08/28 11:16:42;;;;;;;;;;;23.90;87.90;;;;;;5091263;28;20340;-71
2023/08/28 11:19:07;;;;;;;;;;;23.90;87.40;;;;;;5091630;28;19912;-68
2023/08/28 11:21:39;;;;;;;;;;;24.10;87.50;;;;;;5094938;28;19916;-69
2023/08/28 11:24:25;;;;;;;;;;;23.70;85.60;;;;;;5095404;28;20323;-69
2023/08/28 11:26:52;;;;;;;;;;;23.30;87.30;;;;;;5094610;28;19969;-69
2023/08/28 11:29:27;;;;;;;;;;;23.60;86.90;;;;;;5094615;28;20246;-68
2023/08/28 11:31:52;;;;;;;;;;;23.50;87.30;;;;;;5094696;28;20003;-70
2023/08/28 11:34:18;;;;;;;;;;;23.60;87.20;;;;;;5094428;28;20314;-68
2023/08/28 11:36:45;;;;;;;;;;;23.70;87.20;;;;;;5094378;28;19916;-68
2023/08/28 11:39:22;;;;;;;;;;;24.00;86.80;;;;;;5094881;28;19920;-69
2023/08/28 11:41:47;;;;;;;;;;;23.60;85.10;;;;;;5095329;28;19912;-69
2023/08/28 11:44:14;;;;;;;;;;;23.30;85.90;;;;;;5094855;28;20007;-71
2023/08/28 11:46:39;;;;;;;;;;;23.60;85.50;;;;;;5094010;28;19912;-70
2023/08/28 11:49:08;;;;;;;;;;;23.20;85.00;;;;;;5094248;28;20353;-71
2023/08/28 11:51:35;;;;;;;;;;;23.40;85.30;;;;;;5094293;28;20337;-71
2023/08/28 11:54:01;;;;;;;;;;;23.60;85.20;;;;;;5094346;28;19916;-71
2023/08/28 11:56:27;;;;;;;;;;;23.70;85.50;;;;;;5094095;28;19931;-71
2023/08/28 11:58:53;;;;;;;;;;;23.60;84.80;;;;;;5094016;28;19982;-70
2023/08/28 12:01:19;;;;;;;;;;;23.50;84.20;;;;;;5093850;28;20372;-71
2023/08/28 12:03:45;;;;;;;;;;;23.40;84.20;;;;;;5094213;28;19912;-71
2023/08/28 12:06:12;;;;;;;;;;;23.30;84.10;;;;;;5094132;28;20373;-70
2023/08/28 12:08:40;;;;;;;;;;;23.20;84.40;;;;;;5093910;28;19923;-72
2023/08/28 12:11:09;;;;;;;;;;;23.00;84.10;;;;;;5093988;28;19922;-73
2023/08/28 12:13:35;;;;;;;;;;;23.10;84.20;;;;;;5093650;28;19912;-70
2023/08/28 12:16:08;;;;;;;;;;;23.10;85.60;;;;;;5093833;28;20470;-70
2023/08/28 12:18:46;;;;;;;;;;;23.40;84.50;;;;;;5093353;28;19916;-68
2023/08/28 12:21:12;;;;;;;;;;;23.30;83.80;;;;;;5093979;28;20350;-68
2023/08/28 12:24:06;;;;;;;;;;;23.30;83.80;;;;;;5093509;28;19912;-70
2023/08/28 12:26:33;;;;;;;;;;;23.40;84.50;;;;;;5091644;28;19928;-70
2023/08/28 12:28:59;;;;;;;;;;;23.40;84.10;;;;;;5093385;28;19912;-69
2023/08/28 12:31:32;;;;;;;;;;;23.30;84.40;;;;;;5092952;28;19924;-68
2023/08/28 12:34:08;;;;;;;;;;;23.20;83.70;;;;;;5093124;28;20372;-68
2023/08/28 12:36:37;;;;;;;;;;;23.10;84.30;;;;;;5093293;28;19908;-68
2023/08/28 12:39:09;;;;;;;;;;;23.30;84.20;;;;;;5093826;28;20262;-69
2023/08/28 12:41:35;;;;;;;;;;;23.30;84.20;;;;;;5093490;28;19939;-70
2023/08/28 12:44:01;;;;;;;;;;;23.10;85.00;;;;;;5092944;28;19991;-70
2023/08/28 12:46:26;;;;;;;;;;;23.00;85.60;;;;;;5093171;28;20015;-69
2023/08/28 12:48:53;;;;;;;;;;;23.10;85.80;;;;;;5093470;28;20305;-70
2023/08/28 12:51:20;;;;;;;;;;;23.10;85.00;;;;;;5093897;28;19908;-71
2023/08/28 12:53:45;;;;;;;;;;;23.20;84.80;;;;;;5093984;28;20317;-70
2023/08/28 12:56:12;;;;;;;;;;;23.30;84.30;;;;;;5092851;28;19916;-73
2023/08/28 12:58:37;;;;;;;;;;;23.20;84.40;;;;;;5091975;28;19923;-69
2023/08/28 13:01:04;;;;;;;;;;;23.30;84.20;;;;;;5091615;28;19913;-71
2023/08/28 13:03:30;;;;;;;;;;;23.30;84.30;;;;;;5092735;28;19934;-70
2023/08/28 13:05:55;;;;;;;;;;;23.30;84.60;;;;;;5092141;28;19912;-72
2023/08/28 13:08:21;;;;;;;;;;;23.30;84.40;;;;;;5092990;28;19916;-70
2023/08/28 13:10:47;;;;;;;;;;;23.40;84.20;;;;;;5091502;28;19928;-69
2023/08/28 13:13:13;;;;;;;;;;;23.20;83.80;;;;;;5092825;28;19913;-69
2023/08/28 13:15:38;;;;;;;;;;;23.40;84.60;;;;;;5092372;28;20258;-69
2023/08/28 13:18:04;;;;;;;;;;;23.30;83.10;;;;;;5092947;28;19916;-70
2023/08/28 13:20:30;;;;;;;;;;;23.40;83.40;;;;;;5095067;28;19923;-70
2023/08/28 13:22:56;;;;;;;;;;;23.30;83.20;;;;;;5092482;28;19920;-71
2023/08/28 13:25:22;;;;;;;;;;;23.30;83.80;;;;;;5091100;28;19920;-70
2023/08/28 13:27:48;;;;;;;;;;;23.40;83.80;;;;;;5092373;28;20006;-70
2023/08/28 13:30:14;;;;;;;;;;;23.40;83.80;;;;;;5092915;28;19938;-70
2023/08/28 13:32:39;;;;;;;;;;;23.50;84.00;;;;;;5091203;28;19912;-68
2023/08/28 13:35:05;;;;;;;;;;;23.70;83.80;;;;;;5092668;28;20298;-71
2023/08/28 13:37:31;;;;;;;;;;;23.80;83.30;;;;;;5092733;28;20385;-70
2023/08/28 13:39:56;;;;;;;;;;;23.60;83.60;;;;;;5091138;28;19920;-69
2023/08/28 13:42:22;;;;;;;;;;;23.80;83.70;;;;;;5090195;28;20427;-69
2023/08/28 13:44:48;;;;;;;;;;;23.70;82.90;;;;;;5091507;28;20320;-69
2023/08/28 13:47:13;;;;;;;;;;;23.80;83.40;;;;;;5092114;28;19948;-69
2023/08/28 13:49:39;;;;;;;;;;;23.80;82.20;;;;;;5092475;28;19946;-69
2023/08/28 13:52:05;;;;;;;;;;;23.90;82.20;;;;;;5093028;28;19912;-70
2023/08/28 13:54:30;;;;;;;;;;;23.70;82.60;;;;;;5092517;28;19919;-70
2023/08/28 13:56:57;;;;;;;;;;;23.80;83.50;;;;;;5093103;28;19916;-70
2023/08/28 13:59:22;;;;;;;;;;;24.00;83.00;;;;;;5092217;28;19923;-68
2023/08/28 14:01:48;;;;;;;;;;;24.00;82.20;;;;;;5091812;28;19912;-70
2023/08/28 14:04:14;;;;;;;;;;;23.80;82.00;;;;;;5091708;28;19965;-70
2023/08/28 14:06:39;;;;;;;;;;;23.60;82.90;;;;;;5091559;28;20353;-70
2023/08/28 14:09:05;;;;;;;;;;;23.70;83.50;;;;;;5091803;28;20350;-72
2023/08/28 14:11:30;;;;;;;;;;;23.70;83.20;;;;;;5091414;28;20127;-70
2023/08/28 14:13:56;;;;;;;;;;;23.80;83.00;;;;;;5091411;28;19948;-71